Etusivu
METAR-TAF:

METAR-TAF

Lentoasemat :

Heidrun, Norja

Leveyspiiri: 65-19-30N, Pituuspiiri: 007-19-36E, korkeus merenpinnasta: 0 m

Tämänhetkinen sää

Tämä raportti tehtiin 41 minuuttia sitten, kello 17.20 UTC
Tuuli 14 kn idästä/kaakosta
Lämpötila 2°C
Kosteus 69%
Ilmanpaine 1025 hPa
Näkyvyys 10 km tai enemmän
Hajonneita pilviä 2500 ft:n korkeudessa

METAR: ENHE 191720Z 11014KT 9999 BKN025 02/M03 Q1025 W///S4

Aika: 19:01 (18:01 UTC)

Sääennuste

Tämä raportti tehtiin 1 tunti ja 1 minuuttia sitten, kello 17.00 UTC
Ennuste voimassa 19. päivästä klo 18 UTC - 20. päivään klo 03 UTC
Tuuli 18 kn idästä/kaakosta
Näkyvyys 10 km tai enemmän
Hajanaisia pilviä 2500 ft:n korkeudessa

TAF: ENHE 191700Z 1918/2003 12018KT 9999 SCT025

Säähavainnot ja -ennusteet yli 4000 lentoasemalta (METAR- ja TAF-raportit).

Käytössä olevat sääasemat on merkitty karttaan keltaisilla ja punaisilla pisteillä.

Aseta hiiri pisteen päälle nähdäksesi sääaseman nimen.

Klikkaa sitten nähdäksesi säähavainnot ja -ennusteet.

Kartan vaihtaminen: klikkaa mustalla rastilla varustettuja vihreitä pisteitä, niin voit zoomata sisään; viivalla varustettua vihreää pistettä, niin voit zoomata ulos tai vihreitä nuolia, niin pääset viereisille kartoille.


METAR-TAF: